createdAt,value
2016-03-04T00:00:03.632Z,92
2016-03-04T00:01:03.619Z,92
2016-03-04T00:02:03.638Z,92
2016-03-04T00:03:03.641Z,92
2016-03-04T00:04:03.659Z,92
2016-03-04T00:05:03.661Z,96
2016-03-04T00:06:03.663Z,92
2016-03-04T00:07:03.666Z,92
2016-03-04T00:08:03.732Z,92
2016-03-04T00:09:03.688Z,96
2016-03-04T00:10:03.675Z,92
2016-03-04T00:11:03.694Z,92
2016-03-04T00:12:03.712Z,92
2016-03-04T00:13:03.699Z,92
2016-03-04T00:14:03.873Z,92
2016-03-04T00:15:03.720Z,96
2016-03-04T00:16:03.738Z,96
2016-03-04T00:17:03.740Z,92
2016-03-04T00:18:03.743Z,92
2016-03-04T00:19:03.778Z,92
2016-03-04T00:20:03.748Z,92
2016-03-04T00:21:03.783Z,92
2016-03-04T00:22:03.770Z,96
2016-03-04T00:23:03.772Z,92
2016-03-04T00:24:03.791Z,92
2016-03-04T00:25:03.778Z,92
2016-03-04T00:26:03.812Z,92
2016-03-04T00:27:03.784Z,92
2016-03-04T00:28:03.816Z,92
2016-03-04T00:29:03.851Z,96
2016-03-04T00:30:03.853Z,96
2016-03-04T00:31:03.346Z,96
2016-03-04T00:32:03.712Z,92
2016-03-04T00:33:03.840Z,92
2016-03-04T00:34:03.843Z,92
2016-03-04T00:35:03.862Z,92
2016-03-04T00:36:03.849Z,92
2016-03-04T00:37:03.867Z,92
2016-03-04T00:38:03.884Z,96
2016-03-04T00:39:03.872Z,92
2016-03-04T00:40:03.876Z,92
2016-03-04T00:41:03.878Z,92
2016-03-04T00:42:03.896Z,92
2016-03-04T00:43:03.898Z,96
2016-03-04T00:44:03.948Z,92
2016-03-04T00:45:03.934Z,96
2016-03-04T00:46:03.922Z,96
2016-03-04T00:47:03.925Z,96
2016-03-04T00:48:03.928Z,96
2016-03-04T00:49:03.946Z,92
2016-03-04T00:50:03.948Z,92
2016-03-04T00:51:03.983Z,96
2016-03-04T00:52:03.953Z,96
2016-03-04T00:53:03.973Z,96
2016-03-04T00:54:03.975Z,92
2016-03-04T00:55:04.009Z,92
2016-03-04T00:56:03.981Z,96
2016-03-04T00:57:04.000Z,92
2016-03-04T00:58:04.017Z,92
2016-03-04T00:59:04.067Z,92
2016-03-04T01:00:03.867Z,92
2016-03-04T01:01:04.026Z,92
2016-03-04T01:02:04.028Z,92
2016-03-04T01:03:04.031Z,92
2016-03-04T01:04:04.034Z,96
2016-03-04T01:05:04.052Z,96
2016-03-04T01:06:04.056Z,92
2016-03-04T01:07:04.074Z,92
2016-03-04T01:08:04.077Z,92
2016-03-04T01:09:04.063Z,92
2016-03-04T01:10:04.082Z,92
2016-03-04T01:11:04.085Z,96
2016-03-04T01:12:04.088Z,96
2016-03-04T01:13:04.121Z,92
2016-03-04T01:14:04.108Z,92
2016-03-04T01:15:04.127Z,92
2016-03-04T01:16:04.129Z,96
2016-03-04T01:17:04.116Z,92
2016-03-04T01:18:04.135Z,96
2016-03-04T01:19:04.137Z,92
2016-03-04T01:20:04.154Z,92
2016-03-04T01:21:04.158Z,92
2016-03-04T01:22:04.160Z,92
2016-03-04T01:23:04.163Z,96
2016-03-04T01:24:04.181Z,92
2016-03-04T01:25:04.168Z,96
2016-03-04T01:26:04.187Z,96
2016-03-04T01:27:04.206Z,92
2016-03-04T01:28:04.208Z,92
2016-03-04T01:29:04.242Z,92
2016-03-04T01:30:04.214Z,92
2016-03-04T01:31:04.231Z,92
2016-03-04T01:32:04.234Z,92
2016-03-04T01:33:04.237Z,96
2016-03-04T01:34:04.240Z,96
2016-03-04T01:35:04.258Z,92
2016-03-04T01:36:04.277Z,96
2016-03-04T01:37:04.263Z,92
2016-03-04T01:38:04.250Z,92
2016-03-04T01:39:04.252Z,92
2016-03-04T01:40:04.288Z,92
2016-03-04T01:41:04.290Z,96
2016-03-04T01:42:04.293Z,92
2016-03-04T01:43:04.295Z,96
2016-03-04T01:44:04.313Z,92
2016-03-04T01:45:04.316Z,92
2016-03-04T01:46:04.319Z,92
2016-03-04T01:47:04.338Z,92
2016-03-04T01:48:04.340Z,96
2016-03-04T01:49:04.343Z,92
2016-03-04T01:50:04.346Z,92
2016-03-04T01:51:04.348Z,92
2016-03-04T01:52:04.350Z,92
2016-03-04T01:53:04.369Z,96
2016-03-04T01:54:04.388Z,96
2016-03-04T01:55:04.374Z,96
2016-03-04T01:56:04.376Z,92
2016-03-04T01:57:04.395Z,92
2016-03-04T01:58:04.414Z,92
2016-03-04T01:59:04.416Z,92
2016-03-04T02:00:04.419Z,96
2016-03-04T02:01:04.422Z,92
2016-03-04T02:02:04.425Z,92
2016-03-04T02:03:04.442Z,92
2016-03-04T02:04:04.446Z,92
2016-03-04T02:05:04.448Z,92
2016-03-04T02:06:04.466Z,96
2016-03-04T02:07:04.453Z,96
2016-03-04T02:08:04.471Z,96
2016-03-04T02:09:04.490Z,96
2016-03-04T02:10:04.477Z,96
2016-03-04T02:11:04.495Z,92
2016-03-04T02:12:04.498Z,96
2016-03-04T02:13:04.501Z,92
2016-03-04T02:14:04.518Z,96
2016-03-04T02:15:04.521Z,92
2016-03-04T02:16:04.524Z,96
2016-03-04T02:17:04.527Z,92
2016-03-04T02:18:04.545Z,96
2016-03-04T02:19:04.548Z,92
2016-03-04T02:20:04.395Z,92
2016-03-04T02:21:04.553Z,92
2016-03-04T02:22:04.571Z,92
2016-03-04T02:23:04.558Z,96
2016-03-04T02:24:04.576Z,96
2016-03-04T02:25:04.579Z,92
2016-03-04T02:26:04.582Z,92
2016-03-04T02:27:04.589Z,92
2016-03-04T02:28:04.608Z,92
2016-03-04T02:29:04.610Z,96
2016-03-04T02:30:04.613Z,92
2016-03-04T02:31:04.632Z,92
2016-03-04T02:32:04.619Z,92
2016-03-04T02:33:04.637Z,92
2016-03-04T02:34:04.640Z,92
2016-03-04T02:35:04.643Z,96
2016-03-04T02:36:04.646Z,92
2016-03-04T02:37:04.663Z,92
2016-03-04T02:38:04.682Z,96
2016-03-04T02:39:04.668Z,92
2016-03-04T02:40:04.687Z,96
2016-03-04T02:41:04.674Z,92
2016-03-04T02:42:04.692Z,96
2016-03-04T02:43:04.695Z,92
2016-03-04T02:44:04.698Z,92
2016-03-04T02:45:04.715Z,92
2016-03-04T02:46:04.718Z,92
2016-03-04T02:47:04.721Z,96
2016-03-04T02:48:04.723Z,92
2016-03-04T02:49:04.742Z,92
2016-03-04T02:50:04.745Z,96
2016-03-04T02:51:04.748Z,92
2016-03-04T02:52:04.781Z,92
2016-03-04T02:53:04.769Z,92
2016-03-04T02:54:04.771Z,96
2016-03-04T02:55:04.774Z,92
2016-03-04T02:56:04.792Z,92
2016-03-04T02:57:04.639Z,92
2016-03-04T02:58:04.798Z,92
2016-03-04T02:59:04.816Z,92
2016-03-04T03:00:04.819Z,92
2016-03-04T03:01:04.822Z,92
2016-03-04T03:02:04.825Z,96
2016-03-04T03:03:04.843Z,92
2016-03-04T03:04:04.830Z,92
2016-03-04T03:05:04.848Z,92
2016-03-04T03:06:04.851Z,92
2016-03-04T03:07:04.853Z,96
2016-03-04T03:08:04.871Z,92
2016-03-04T03:09:04.874Z,92
2016-03-04T03:10:04.877Z,92
2016-03-04T03:11:04.896Z,96
2016-03-04T03:12:04.898Z,92
2016-03-04T03:13:04.915Z,92
2016-03-04T03:14:04.918Z,92
2016-03-04T03:15:04.922Z,92
2016-03-04T03:16:04.924Z,92
2016-03-04T03:17:04.926Z,96
2016-03-04T03:18:04.929Z,92
2016-03-04T03:19:04.932Z,92
2016-03-04T03:20:04.934Z,92
2016-03-04T03:21:04.984Z,92
2016-03-04T03:22:04.956Z,92
2016-03-04T03:23:04.959Z,92
2016-03-04T03:24:05.008Z,92
2016-03-04T03:25:04.980Z,92
2016-03-04T03:26:04.982Z,92
2016-03-04T03:27:05.000Z,92
2016-03-04T03:28:05.004Z,96
2016-03-04T03:29:05.006Z,92
2016-03-04T03:30:05.025Z,92
2016-03-04T03:31:05.027Z,92
2016-03-04T03:32:05.030Z,92
2016-03-04T03:33:05.032Z,92
2016-03-04T03:34:05.035Z,92
2016-03-04T03:35:05.054Z,92
2016-03-04T03:36:05.041Z,96
2016-03-04T03:37:05.059Z,92
2016-03-04T03:38:05.062Z,0
2016-03-04T03:39:05.064Z,0
2016-03-04T03:40:05.082Z,0
2016-03-04T03:41:05.071Z,0
2016-03-04T03:42:05.088Z,0
2016-03-04T03:43:05.107Z,0
2016-03-04T03:44:05.109Z,0
2016-03-04T03:45:05.127Z,0
2016-03-04T03:46:05.129Z,0
2016-03-04T03:47:05.117Z,0
2016-03-04T03:48:05.120Z,0
2016-03-04T03:49:05.138Z,0
2016-03-04T03:50:05.141Z,0
2016-03-04T03:51:05.159Z,0
2016-03-04T03:52:05.161Z,0
2016-03-04T03:53:05.164Z,0
2016-03-04T03:54:05.168Z,0
2016-03-04T03:55:05.169Z,0
2016-03-04T03:56:05.172Z,0
2016-03-04T03:57:05.222Z,0
2016-03-04T03:58:05.194Z,0
2016-03-04T03:59:05.211Z,0
2016-03-04T04:00:05.199Z,0
2016-03-04T04:01:05.233Z,0
2016-03-04T04:02:05.219Z,0
2016-03-04T04:03:05.238Z,0
2016-03-04T04:04:05.225Z,0
2016-03-04T04:05:05.305Z,0
2016-03-04T04:06:05.262Z,0
2016-03-04T04:07:05.249Z,0
2016-03-04T04:08:05.268Z,0
2016-03-04T04:09:05.271Z,0
2016-03-04T04:10:05.288Z,0
2016-03-04T04:11:05.291Z,0
2016-03-04T04:12:05.293Z,0
2016-03-04T04:13:05.296Z,0
2016-03-04T04:14:05.298Z,0
2016-03-04T04:15:05.302Z,0
2016-03-04T04:16:05.321Z,0
2016-03-04T04:17:05.323Z,0
2016-03-04T04:18:05.341Z,0
2016-03-04T04:19:05.343Z,0
2016-03-04T04:20:05.346Z,0
2016-03-04T04:21:05.348Z,0
2016-03-04T04:22:05.415Z,0
2016-03-04T04:23:05.370Z,0
2016-03-04T04:24:05.373Z,0
2016-03-04T04:25:05.375Z,0
2016-03-04T04:26:05.378Z,0
2016-03-04T04:27:05.411Z,0
2016-03-04T04:28:05.400Z,0
2016-03-04T04:29:05.403Z,0
2016-03-04T04:30:05.405Z,0
2016-03-04T04:31:05.407Z,0
2016-03-04T04:32:05.425Z,0
2016-03-04T04:33:05.428Z,0
2016-03-04T04:34:05.477Z,0
2016-03-04T04:35:05.433Z,0
2016-03-04T04:36:05.452Z,0
2016-03-04T04:37:05.471Z,0
2016-03-04T04:38:05.473Z,0
2016-03-04T04:39:05.507Z,0
2016-03-04T04:40:05.478Z,0
2016-03-04T04:41:05.481Z,0
2016-03-04T04:42:05.499Z,0
2016-03-04T04:43:05.517Z,0
2016-03-04T04:44:05.505Z,0
2016-03-04T04:45:05.523Z,0
2016-03-04T04:46:05.541Z,0
2016-03-04T04:47:05.528Z,0
2016-03-04T04:48:05.579Z,0
2016-03-04T04:49:05.534Z,0
2016-03-04T04:50:05.537Z,0
2016-03-04T04:51:05.554Z,0
2016-03-04T04:52:05.557Z,0
2016-03-04T04:53:05.592Z,0
2016-03-04T04:54:05.791Z,0
2016-03-04T04:55:05.470Z,0
2016-03-04T04:56:07.224Z,0
2016-03-04T04:57:05.946Z,0
2016-03-04T04:58:05.619Z,0
2016-03-04T04:59:05.685Z,0
2016-03-04T05:00:05.484Z,0
2016-03-04T05:01:05.627Z,0
2016-03-04T05:02:05.629Z,0
2016-03-04T05:03:05.632Z,0
2016-03-04T05:04:05.652Z,0
2016-03-04T05:05:05.638Z,0
2016-03-04T05:06:05.673Z,0
2016-03-04T05:07:05.675Z,0
2016-03-04T05:08:05.662Z,0
2016-03-04T05:09:05.712Z,0
2016-03-04T05:10:05.684Z,0
2016-03-04T05:11:05.686Z,0
2016-03-04T05:12:05.689Z,0
2016-03-04T05:13:05.691Z,0
2016-03-04T05:14:05.709Z,0
2016-03-04T05:15:05.758Z,0
2016-03-04T05:16:05.762Z,0
2016-03-04T05:17:05.750Z,0
2016-03-04T05:18:05.736Z,0
2016-03-04T05:19:05.770Z,0
2016-03-04T05:20:05.757Z,0
2016-03-04T05:21:05.760Z,0
2016-03-04T05:22:05.763Z,0
2016-03-04T05:23:05.766Z,0
2016-03-04T05:24:05.783Z,0
2016-03-04T05:25:05.771Z,0
2016-03-04T05:26:05.804Z,0
2016-03-04T05:27:05.807Z,0
2016-03-04T05:28:05.824Z,0
2016-03-04T05:29:05.797Z,0
2016-03-04T05:30:05.831Z,0
2016-03-04T05:31:05.818Z,0
2016-03-04T05:32:05.852Z,0
2016-03-04T05:33:05.838Z,0
2016-03-04T05:34:05.904Z,0
2016-03-04T05:35:05.844Z,0
2016-03-04T05:36:05.862Z,0
2016-03-04T05:37:05.865Z,0
2016-03-04T05:38:05.868Z,0
2016-03-04T05:39:05.886Z,0
2016-03-04T05:40:05.889Z,0
2016-03-04T05:41:05.906Z,0
2016-03-04T05:42:05.895Z,0
2016-03-04T05:43:05.929Z,0
2016-03-04T05:44:05.915Z,0
2016-03-04T05:45:05.825Z,0
2016-03-04T05:46:05.920Z,0
2016-03-04T05:47:05.923Z,0
2016-03-04T05:48:05.941Z,0
2016-03-04T05:49:05.944Z,0
2016-03-04T05:50:05.963Z,0
2016-03-04T05:51:05.950Z,4
2016-03-04T05:52:05.968Z,4
2016-03-04T05:53:05.971Z,4
2016-03-04T05:54:05.988Z,0
2016-03-04T05:55:05.992Z,4
2016-03-04T05:56:05.979Z,4
2016-03-04T05:57:06.044Z,4
2016-03-04T05:58:06.000Z,4
2016-03-04T05:59:06.018Z,4
2016-03-04T06:00:05.865Z,4
2016-03-04T06:01:06.023Z,4
2016-03-04T06:02:06.026Z,8
2016-03-04T06:03:06.044Z,8
2016-03-04T06:04:06.047Z,8
2016-03-04T06:05:06.082Z,8
2016-03-04T06:06:06.052Z,8
2016-03-04T06:07:06.087Z,12
2016-03-04T06:08:06.054Z,12
2016-03-04T06:09:06.108Z,12
2016-03-04T06:10:06.051Z,12
2016-03-04T06:11:06.057Z,12
2016-03-04T06:12:06.047Z,12
2016-03-04T06:13:06.319Z,12
2016-03-04T06:14:06.051Z,16
2016-03-04T06:15:06.049Z,16
2016-03-04T06:16:06.048Z,20
2016-03-04T06:17:06.062Z,24
2016-03-04T06:18:06.045Z,28
2016-03-04T06:19:06.062Z,32
2016-03-04T06:20:06.063Z,32
2016-03-04T06:21:06.080Z,36
2016-03-04T06:22:06.065Z,36
2016-03-04T06:23:06.097Z,40
2016-03-04T06:24:06.084Z,44
2016-03-04T06:25:06.086Z,44
2016-03-04T06:26:06.103Z,44
2016-03-04T06:27:06.090Z,48
2016-03-04T06:28:06.123Z,52
2016-03-04T06:29:06.110Z,52
2016-03-04T06:30:06.113Z,56
2016-03-04T06:31:06.147Z,64
2016-03-04T06:32:06.134Z,64
2016-03-04T06:33:06.137Z,68
2016-03-04T06:34:06.154Z,64
2016-03-04T06:35:06.157Z,64
2016-03-04T06:36:06.192Z,68
2016-03-04T06:37:06.163Z,72
2016-03-04T06:38:06.197Z,76
2016-03-04T06:39:06.184Z,72
2016-03-04T06:40:06.031Z,76
2016-03-04T06:41:06.205Z,76
2016-03-04T06:42:06.208Z,84
2016-03-04T06:43:06.211Z,84
2016-03-04T06:44:06.214Z,84
2016-03-04T06:45:06.247Z,84
2016-03-04T06:46:06.234Z,88
2016-03-04T06:47:06.236Z,92
2016-03-04T06:48:06.239Z,92
2016-03-04T06:49:06.273Z,88
2016-03-04T06:50:06.261Z,88
2016-03-04T06:51:06.280Z,92
2016-03-04T06:52:06.266Z,92
2016-03-04T06:53:06.285Z,96
2016-03-04T06:54:06.302Z,96
2016-03-04T06:55:06.321Z,100
2016-03-04T06:56:06.308Z,100
2016-03-04T06:57:06.310Z,104
2016-03-04T06:58:06.329Z,112
2016-03-04T06:59:06.316Z,116
2016-03-04T07:00:06.334Z,120
2016-03-04T07:01:06.352Z,120
2016-03-04T07:02:06.339Z,124
2016-03-04T07:03:06.390Z,124
2016-03-04T07:04:06.345Z,128
2016-03-04T07:05:06.363Z,132
2016-03-04T07:06:06.210Z,132
2016-03-04T07:07:06.369Z,132
2016-03-04T07:08:06.403Z,136
2016-03-04T07:09:06.389Z,140
2016-03-04T07:10:06.408Z,140
2016-03-04T07:11:06.395Z,136
2016-03-04T07:12:06.382Z,144
2016-03-04T07:13:06.417Z,140
2016-03-04T07:14:06.404Z,144
2016-03-04T07:15:06.437Z,152
2016-03-04T07:16:06.455Z,156
2016-03-04T07:17:06.442Z,160
2016-03-04T07:18:06.461Z,160
2016-03-04T07:19:06.463Z,168
2016-03-04T07:20:06.466Z,176
2016-03-04T07:21:06.469Z,180
2016-03-04T07:22:06.519Z,188
2016-03-04T07:23:06.474Z,188
2016-03-04T07:24:06.493Z,196
2016-03-04T07:25:06.496Z,196
2016-03-04T07:26:06.498Z,196
2016-03-04T07:27:06.516Z,196
2016-03-04T07:28:06.518Z,200
2016-03-04T07:29:06.537Z,204
2016-03-04T07:30:06.524Z,212
2016-03-04T07:31:06.542Z,216
2016-03-04T07:32:06.546Z,224
2016-03-04T07:33:06.548Z,228
2016-03-04T07:34:06.551Z,236
2016-03-04T07:35:06.569Z,240
2016-03-04T07:36:06.571Z,244
2016-03-04T07:37:06.746Z,244
2016-03-04T07:38:06.639Z,244
2016-03-04T07:39:06.659Z,244
2016-03-04T07:40:06.598Z,240
2016-03-04T07:41:06.601Z,240
2016-03-04T07:42:06.603Z,236
2016-03-04T07:43:06.622Z,232
2016-03-04T07:44:06.625Z,232
2016-03-04T07:45:06.642Z,232
2016-03-04T07:46:06.646Z,236
2016-03-04T07:47:06.633Z,240
2016-03-04T07:48:06.650Z,248
2016-03-04T07:49:06.653Z,252
2016-03-04T07:50:06.688Z,256
2016-03-04T07:51:06.658Z,256
2016-03-04T07:52:06.677Z,260
2016-03-04T07:53:06.679Z,260
2016-03-04T07:54:06.699Z,260
2016-03-04T07:55:06.701Z,272
2016-03-04T07:56:06.688Z,284
2016-03-04T07:57:06.707Z,292
2016-03-04T07:58:06.724Z,300
2016-03-04T07:59:06.743Z,316
2016-03-04T08:00:06.746Z,320
2016-03-04T08:01:06.764Z,320
2016-03-04T08:02:06.595Z,320
2016-03-04T08:03:06.018Z,316
2016-03-04T08:04:06.788Z,308
2016-03-04T08:05:06.774Z,304
2016-03-04T08:06:06.777Z,300
2016-03-04T08:07:06.780Z,284
2016-03-04T08:08:06.782Z,280
2016-03-04T08:09:06.817Z,272
2016-03-04T08:10:06.819Z,268
2016-03-04T08:11:06.838Z,264
2016-03-04T08:12:06.809Z,248
2016-03-04T08:13:06.842Z,224
2016-03-04T08:14:06.830Z,204
2016-03-04T08:15:06.880Z,196
2016-03-04T08:16:21.070Z,200
2016-03-04T08:17:06.854Z,192
2016-03-04T08:18:06.857Z,180
2016-03-04T08:19:06.875Z,172
2016-03-04T08:20:06.877Z,172
2016-03-04T08:21:06.896Z,188
2016-03-04T08:22:06.899Z,204
2016-03-04T08:23:06.933Z,204
2016-03-04T08:24:06.904Z,200
2016-03-04T08:25:06.953Z,200
2016-03-04T08:26:06.924Z,200
2016-03-04T08:27:06.927Z,200
2016-03-04T08:28:06.946Z,200
2016-03-04T08:29:06.933Z,196
2016-03-04T08:30:06.966Z,184
2016-03-04T08:31:06.954Z,164
2016-03-04T08:32:06.972Z,152
2016-03-04T08:33:06.974Z,144
2016-03-04T08:34:06.993Z,144
2016-03-04T08:35:06.980Z,144
2016-03-04T08:36:06.998Z,148
2016-03-04T08:37:07.017Z,152
2016-03-04T08:38:07.035Z,160
2016-03-04T08:39:07.023Z,168
2016-03-04T08:40:07.040Z,168
2016-03-04T08:41:07.028Z,176
2016-03-04T08:42:07.062Z,176
2016-03-04T08:43:07.048Z,180
2016-03-04T08:44:07.083Z,184
2016-03-04T08:45:07.070Z,176
2016-03-04T08:46:07.103Z,188
2016-03-04T08:47:07.091Z,196
2016-03-04T08:48:07.094Z,200
2016-03-04T08:49:07.112Z,184
2016-03-04T08:50:07.099Z,188
2016-03-04T08:51:07.133Z,208
2016-03-04T08:52:07.105Z,220
2016-03-04T08:53:07.122Z,220
2016-03-04T08:54:07.155Z,224
2016-03-04T08:55:07.144Z,232
2016-03-04T08:56:07.161Z,244
2016-03-04T08:57:07.164Z,248
2016-03-04T08:58:07.183Z,252
2016-03-04T08:59:07.169Z,256
2016-03-04T09:00:07.204Z,264
2016-03-04T09:01:07.175Z,272
2016-03-04T09:02:07.209Z,272
2016-03-04T09:03:07.259Z,268
2016-03-04T09:04:07.229Z,264
2016-03-04T09:05:07.218Z,260
2016-03-04T09:06:07.221Z,260
2016-03-04T09:07:07.255Z,260
2016-03-04T09:08:07.086Z,268
2016-03-04T09:09:07.260Z,272
2016-03-04T09:10:07.278Z,272
2016-03-04T09:11:07.266Z,272
2016-03-04T09:12:07.268Z,260
2016-03-04T09:13:07.287Z,248
2016-03-04T09:14:07.289Z,244
2016-03-04T09:15:07.292Z,248
2016-03-04T09:16:07.310Z,268
2016-03-04T09:17:07.297Z,288
2016-03-04T09:18:07.299Z,296
2016-03-04T09:19:07.318Z,308
2016-03-04T09:20:07.351Z,328
2016-03-04T09:21:07.340Z,340
2016-03-04T09:22:07.357Z,344
2016-03-04T09:23:07.376Z,332
2016-03-04T09:24:07.348Z,308
2016-03-04T09:25:07.365Z,272
2016-03-04T09:26:07.368Z,236
2016-03-04T09:27:07.403Z,212
2016-03-04T09:28:07.389Z,180
2016-03-04T09:29:07.408Z,180
2016-03-04T09:30:07.395Z,180
2016-03-04T09:31:07.428Z,168
2016-03-04T09:32:07.417Z,152
2016-03-04T09:33:07.450Z,144
2016-03-04T09:34:07.467Z,140
2016-03-04T09:35:07.455Z,140
2016-03-04T09:36:07.442Z,148
2016-03-04T09:37:07.476Z,160
2016-03-04T09:38:07.447Z,168
2016-03-04T09:39:07.466Z,176
2016-03-04T09:40:07.484Z,180
2016-03-04T09:41:07.487Z,176
2016-03-04T09:42:07.505Z,164
2016-03-04T09:43:07.508Z,160
2016-03-04T09:44:07.526Z,156
2016-03-04T09:45:07.513Z,180
2016-03-04T09:46:07.563Z,208
2016-03-04T09:47:07.534Z,216
2016-03-04T09:48:07.693Z,224
2016-03-04T09:49:07.555Z,220
2016-03-04T09:50:07.558Z,228
2016-03-04T09:51:07.593Z,228
2016-03-04T09:52:07.579Z,224
2016-03-04T09:53:07.565Z,224
2016-03-04T09:54:07.585Z,224
2016-03-04T09:55:07.587Z,228
2016-03-04T09:56:07.605Z,224
2016-03-04T09:57:07.593Z,220
2016-03-04T09:58:07.611Z,224
2016-03-04T09:59:07.614Z,224
2016-03-04T10:00:07.648Z,236
2016-03-04T10:01:07.634Z,236
2016-03-04T10:02:07.637Z,236
2016-03-04T10:03:07.671Z,236
2016-03-04T10:04:07.658Z,236
2016-03-04T10:05:07.675Z,232
2016-03-04T10:06:07.664Z,236
2016-03-04T10:07:07.525Z,236
2016-03-04T10:08:07.684Z,244
2016-03-04T10:09:07.703Z,240
2016-03-04T10:10:07.689Z,248
2016-03-04T10:11:07.708Z,248
2016-03-04T10:12:07.727Z,256
2016-03-04T10:13:07.713Z,260
2016-03-04T10:14:07.716Z,264
2016-03-04T10:15:07.750Z,264
2016-03-04T10:16:07.784Z,264
2016-03-04T10:17:07.741Z,264
2016-03-04T10:18:07.602Z,260
2016-03-04T10:19:07.776Z,256
2016-03-04T10:20:07.780Z,256
2016-03-04T10:21:07.813Z,248
2016-03-04T10:22:07.784Z,248
2016-03-04T10:23:07.804Z,260
2016-03-04T10:24:08.212Z,260
2016-03-04T10:25:07.824Z,260
2016-03-04T10:26:07.842Z,252
2016-03-04T10:27:07.814Z,248
2016-03-04T10:28:07.832Z,252
2016-03-04T10:29:07.865Z,256
2016-03-04T10:30:07.853Z,264
2016-03-04T10:31:07.870Z,264
2016-03-04T10:32:07.874Z,272
2016-03-04T10:33:07.892Z,272
2016-03-04T10:34:07.879Z,268
2016-03-04T10:35:07.882Z,268
2016-03-04T10:36:07.884Z,276
2016-03-04T10:37:07.903Z,280
2016-03-04T10:38:07.937Z,284
2016-03-04T10:39:07.924Z,280
2016-03-04T10:40:07.927Z,272
2016-03-04T10:41:07.914Z,268
2016-03-04T10:42:07.947Z,260
2016-03-04T10:43:07.935Z,260
2016-03-04T10:44:07.968Z,264
2016-03-04T10:45:07.956Z,268
2016-03-04T10:46:07.990Z,276
2016-03-04T10:47:07.976Z,280
2016-03-04T10:48:07.980Z,272
2016-03-04T10:49:07.998Z,264
2016-03-04T10:50:08.485Z,268
2016-03-04T10:51:08.019Z,264
2016-03-04T10:52:08.053Z,260
2016-03-04T10:53:08.024Z,260
2016-03-04T10:54:08.027Z,268
2016-03-04T10:55:08.045Z,272
2016-03-04T10:56:08.032Z,284
2016-03-04T10:57:08.051Z,296
2016-03-04T10:58:08.054Z,300
2016-03-04T10:59:08.071Z,308
2016-03-04T11:00:08.089Z,312
2016-03-04T11:01:08.093Z,316
2016-03-04T11:02:08.095Z,324
2016-03-04T11:03:08.081Z,328
2016-03-04T11:04:08.132Z,348
2016-03-04T11:05:08.104Z,356
2016-03-04T11:06:08.153Z,360
2016-03-04T11:07:08.124Z,364
2016-03-04T11:08:08.128Z,368
2016-03-04T11:09:08.145Z,372
2016-03-04T11:10:08.147Z,372
2016-03-04T11:11:08.167Z,364
2016-03-04T11:12:08.169Z,352
2016-03-04T11:13:08.188Z,332
2016-03-04T11:14:08.175Z,324
2016-03-04T11:15:08.193Z,328
2016-03-04T11:16:08.211Z,324
2016-03-04T11:17:08.198Z,324
2016-03-04T11:18:08.201Z,320
2016-03-04T11:19:08.219Z,324
2016-03-04T11:20:08.221Z,324
2016-03-04T11:21:08.256Z,324
2016-03-04T11:22:08.227Z,312
2016-03-04T11:23:08.260Z,300
2016-03-04T11:24:08.311Z,312
2016-03-04T11:25:08.251Z,320
2016-03-04T11:26:08.269Z,324
2016-03-04T11:27:08.287Z,316
2016-03-04T11:28:08.275Z,300
2016-03-04T11:29:08.309Z,296
2016-03-04T11:30:08.295Z,288
2016-03-04T11:31:08.345Z,276
2016-03-04T11:32:08.332Z,264
2016-03-04T11:33:08.319Z,252
2016-03-04T11:34:08.197Z,252
2016-03-04T11:35:08.372Z,240
2016-03-04T11:36:08.343Z,236
2016-03-04T11:37:08.361Z,224
2016-03-04T11:38:08.348Z,212
2016-03-04T11:39:08.211Z,204
2016-03-04T11:40:08.369Z,192
2016-03-04T11:41:08.372Z,196
2016-03-04T11:42:08.375Z,196
2016-03-04T11:43:08.425Z,204
2016-03-04T11:44:08.396Z,204
2016-03-04T11:45:08.398Z,208
2016-03-04T11:46:08.433Z,204
2016-03-04T11:47:08.419Z,188
2016-03-04T11:48:08.469Z,176
2016-03-04T11:49:08.441Z,164
2016-03-04T11:50:08.444Z,156
2016-03-04T11:51:08.461Z,156
2016-03-04T11:52:08.463Z,148
2016-03-04T11:53:08.467Z,144
2016-03-04T11:54:08.469Z,144
2016-03-04T11:55:08.331Z,128
2016-03-04T11:56:08.490Z,112
2016-03-04T11:57:08.493Z,104
2016-03-04T11:58:08.512Z,104
2016-03-04T11:59:08.498Z,100
2016-03-04T12:00:08.532Z,112
2016-03-04T12:01:08.520Z,108
2016-03-04T12:02:08.553Z,120
2016-03-04T12:03:08.540Z,124
2016-03-04T12:04:08.543Z,108
2016-03-04T12:05:08.546Z,112
2016-03-04T12:06:08.564Z,108
2016-03-04T12:07:08.567Z,120
2016-03-04T12:08:08.600Z,128
2016-03-04T12:09:08.572Z,128
2016-03-04T12:10:08.591Z,128
2016-03-04T12:11:08.609Z,132
2016-03-04T12:12:08.596Z,132
2016-03-04T12:13:08.645Z,136
2016-03-04T12:14:08.633Z,136
2016-03-04T12:15:08.666Z,152
2016-03-04T12:16:08.638Z,172
2016-03-04T12:17:08.656Z,188
2016-03-04T12:18:08.659Z,192
2016-03-04T12:19:08.505Z,196
2016-03-04T12:20:08.664Z,200
2016-03-04T12:21:08.683Z,196
2016-03-04T12:22:08.685Z,184
2016-03-04T12:23:08.719Z,180
2016-03-04T12:24:08.690Z,184
2016-03-04T12:25:08.694Z,180
2016-03-04T12:26:08.712Z,184
2016-03-04T12:27:08.714Z,180
2016-03-04T12:28:08.749Z,172
2016-03-04T12:29:08.735Z,160
2016-03-04T12:30:08.770Z,160
2016-03-04T12:31:08.740Z,152
2016-03-04T12:32:08.744Z,144
2016-03-04T12:33:08.778Z,124
2016-03-04T12:34:08.780Z,116
2016-03-04T12:35:08.768Z,112
2016-03-04T12:36:08.785Z,116
2016-03-04T12:37:08.804Z,120
2016-03-04T12:38:08.806Z,120
2016-03-04T12:39:08.809Z,116
2016-03-04T12:40:08.812Z,112
2016-03-04T12:41:08.814Z,120
2016-03-04T12:42:08.833Z,124
2016-03-04T12:43:08.850Z,120
2016-03-04T12:44:08.839Z,120
2016-03-04T12:45:08.856Z,116
2016-03-04T12:46:09.063Z,124
2016-03-04T12:47:08.908Z,124
2016-03-04T12:48:08.864Z,132
2016-03-04T12:49:08.867Z,124
2016-03-04T12:50:08.885Z,128
2016-03-04T12:51:08.904Z,124
2016-03-04T12:52:08.907Z,116
2016-03-04T12:53:08.894Z,116
2016-03-04T12:54:08.912Z,112
2016-03-04T12:55:08.930Z,112
2016-03-04T12:56:08.933Z,112
2016-03-04T12:57:08.951Z,104
2016-03-04T12:58:08.938Z,104
2016-03-04T12:59:08.957Z,100
2016-03-04T13:00:08.960Z,100
2016-03-04T13:01:08.993Z,108
2016-03-04T13:02:08.965Z,116
2016-03-04T13:03:08.967Z,116
2016-03-04T13:04:08.986Z,128
2016-03-04T13:05:09.004Z,124
2016-03-04T13:06:09.007Z,120
2016-03-04T13:07:08.994Z,108
2016-03-04T13:08:09.012Z,104
2016-03-04T13:09:09.046Z,104
2016-03-04T13:10:09.033Z,104
2016-03-04T13:11:09.036Z,100
2016-03-04T13:12:09.039Z,96
2016-03-04T13:13:09.057Z,100
2016-03-04T13:14:09.059Z,92
2016-03-04T13:15:09.061Z,92
2016-03-04T13:16:09.080Z,96
2016-03-04T13:17:08.927Z,96
2016-03-04T13:18:09.086Z,100
2016-03-04T13:19:09.088Z,92
2016-03-04T13:20:09.123Z,92
2016-03-04T13:21:09.125Z,92
2016-03-04T13:22:09.128Z,96
2016-03-04T13:23:09.130Z,96
2016-03-04T13:24:09.805Z,104
2016-03-04T13:25:09.168Z,112
2016-03-04T13:26:09.171Z,116
2016-03-04T13:27:09.157Z,128
2016-03-04T13:28:09.175Z,156
2016-03-04T13:29:09.179Z,176
2016-03-04T13:30:09.196Z,192
2016-03-04T13:31:09.198Z,196
2016-03-04T13:32:09.201Z,200
2016-03-04T13:33:09.205Z,196
2016-03-04T13:34:09.207Z,188
2016-03-04T13:35:09.209Z,184
2016-03-04T13:36:09.244Z,188
2016-03-04T13:37:09.231Z,200
2016-03-04T13:38:09.249Z,208
2016-03-04T13:39:09.236Z,208
2016-03-04T13:40:09.254Z,208
2016-03-04T13:41:09.273Z,212
2016-03-04T13:42:09.275Z,208
2016-03-04T13:43:09.309Z,196
2016-03-04T13:44:09.280Z,188
2016-03-04T13:45:09.300Z,176
2016-03-04T13:46:09.302Z,164
2016-03-04T13:47:09.305Z,168
2016-03-04T13:48:09.322Z,176
2016-03-04T13:49:09.326Z,180
2016-03-04T13:50:09.344Z,192
2016-03-04T13:51:09.346Z,208
2016-03-04T13:52:09.349Z,216
2016-03-04T13:53:09.368Z,228
2016-03-04T13:54:09.355Z,228
2016-03-04T13:55:09.373Z,236
2016-03-04T13:56:09.376Z,248
2016-03-04T13:57:09.379Z,252
2016-03-04T13:58:09.397Z,256
2016-03-04T13:59:09.399Z,244
2016-03-04T14:00:09.418Z,240
2016-03-04T14:01:09.265Z,232
2016-03-04T14:02:09.423Z,224
2016-03-04T14:03:09.441Z,220
2016-03-04T14:04:09.428Z,224
2016-03-04T14:05:09.462Z,232